EDLP/PAD METAR and TAF weather

Enter ICAO airport designator
Station Type Date Time Source
EDLP METAR 2019/10/23 13:50 UTC NOAA

EDLP 231350Z 13015KT 9999 FEW010 14/11 Q1014


Station Type Date Time Source
EDLP Decoded METAR 2019/10/23 13:50 UTC NOAA

Paderborn / Lippstadt, Germany (EDLP) 51-37N 008-37E
Oct 23, 2019 - 09:50 AM EDT / 2019.10.23 1350 UTC
Wind: from the SE (130 degrees) at 17 MPH (15 KT):0
Visibility: greater than 7 mile(s):0
Sky conditions: mostly clear
Temperature: 57 F (14 C)
Dew Point: 51 F (11 C)
Relative Humidity: 82%
Pressure (altimeter): 29.94 in. Hg (1014 hPa)
ob: EDLP 231350Z 13015KT 9999 FEW010 14/11 Q1014
cycle: 14

Station Type Date Time Source
EDLP TAF 2019/10/23 12:27 UTC NOAA

TAF EDLP 231100Z 2312/2412 11008KT CAVOK
BECMG 2405/2408 17005KT
BECMG 2408/2411 23007KT

Example: see airport list